Time;durP1;ratioP1;P1;durP2;ratioP2;P2;SDS_P1;SDS_P2;PMS_P1;PMS_P2;Temp;Humidity;BMP_temperature;BMP_pressure;BME280_temperature;BME280_humidity;BME280_pressure;Samples;Min_cycle;Max_cycle;Signal;HPM_P1;HPM_P2
2024/02/10 00:00:23;;;;;;;9.40;8.40;;;;;;;1.07;100.00;100026.58;107807;1256;62433;-86
2024/02/10 00:02:52;;;;;;;11.50;8.50;;;;;;;1.13;100.00;100032.41;105738;1257;71362;-86
2024/02/10 00:05:23;;;;;;;9.50;8.50;;;;;;;1.17;100.00;100031.42;105918;1263;59657;-90
2024/02/10 00:19:57;;;;;;;10.70;7.50;;;;;;;1.12;100.00;100024.20;103640;1286;600759;-88
2024/02/10 00:22:27;;;;;;;8.90;6.80;;;;;;;1.08;100.00;100023.45;105530;1264;60913;-88
2024/02/10 00:24:58;;;;;;;9.30;6.90;;;;;;;1.05;100.00;100021.83;105450;1265;59376;-86
2024/02/10 00:27:25;;;;;;;10.00;7.10;;;;;;;1.04;100.00;100025.45;105368;1265;74285;-90
2024/02/10 00:29:53;;;;;;;8.10;6.80;;;;;;;1.08;100.00;100020.67;105485;1266;63579;-88
2024/02/10 00:32:21;;;;;;;8.70;6.30;;;;;;;1.09;100.00;100023.58;105688;1267;72766;-85
2024/02/10 00:34:49;;;;;;;9.70;8.00;;;;;;;1.09;100.00;100024.45;105818;1264;60080;-89
2024/02/10 00:37:17;;;;;;;8.70;7.20;;;;;;;1.07;100.00;100024.34;105801;1266;59343;-90
2024/02/10 00:39:46;;;;;;;7.10;6.30;;;;;;;1.06;100.00;100029.89;105950;1264;72847;-87
2024/02/10 00:42:14;;;;;;;7.70;6.50;;;;;;;1.03;100.00;100030.31;105780;1263;62996;-88
2024/02/10 00:44:42;;;;;;;12.50;10.20;;;;;;;1.01;100.00;100026.41;108864;1263;71477;-88
2024/02/10 00:47:12;;;;;;;11.70;9.50;;;;;;;1.02;100.00;100031.91;108901;1263;59981;-86
2024/02/10 00:49:42;;;;;;;12.50;9.60;;;;;;;1.06;100.00;100037.45;108884;1262;60568;-88
2024/02/10 00:52:09;;;;;;;17.20;12.90;;;;;;;1.12;100.00;100035.05;108945;1263;71472;-86
2024/02/10 00:54:37;;;;;;;19.90;14.20;;;;;;;1.15;100.00;100036.31;108969;1263;62429;-85
2024/02/10 00:57:10;;;;;;;19.70;14.70;;;;;;;1.18;100.00;100033.98;109013;1262;72670;-85
2024/02/10 00:59:41;;;;;;;26.00;17.10;;;;;;;1.21;100.00;100033.71;108967;1263;62065;-86
2024/02/10 01:02:08;;;;;;;22.00;16.40;;;;;;;1.24;100.00;100030.36;108859;1263;60151;-84
2024/02/10 01:04:38;;;;;;;22.20;16.50;;;;;;;1.26;100.00;100032.20;109545;1251;74145;-85
2024/02/10 01:07:07;;;;;;;22.30;15.70;;;;;;;1.28;100.00;100026.95;109707;1251;62703;-84
2024/02/10 01:12:36;;;;;;;20.30;14.50;;;;;;;1.43;100.00;100023.88;106101;1287;600644;-87
2024/02/10 01:15:05;;;;;;;21.70;15.60;;;;;;;1.46;100.00;100017.77;105344;1264;60360;-88
2024/02/10 01:17:33;;;;;;;20.40;13.50;;;;;;;1.47;100.00;100018.26;105279;1266;59892;-87
2024/02/10 01:20:00;;;;;;;19.50;13.40;;;;;;;1.48;100.00;100018.09;105484;1266;71906;-83
2024/02/10 01:22:29;;;;;;;19.30;14.30;;;;;;;1.48;100.00;100013.76;105239;1266;62480;-83
2024/02/10 01:24:57;;;;;;;22.50;14.90;;;;;;;1.49;100.00;100017.34;105169;1266;73353;-84
2024/02/10 01:27:28;;;;;;;22.70;15.30;;;;;;;1.48;100.00;100011.86;105540;1254;199151;-83
2024/02/10 01:29:58;;;;;;;20.60;15.10;;;;;;;1.50;100.00;100018.52;105724;1254;60050;-83
2024/02/10 01:32:25;;;;;;;33.70;22.40;;;;;;;1.53;100.00;100015.13;105700;1255;72207;-84
2024/02/10 01:34:53;;;;;;;26.90;18.20;;;;;;;1.57;100.00;100011.56;105813;1254;63898;-85
2024/02/10 01:37:21;;;;;;;30.40;19.00;;;;;;;1.57;100.00;100015.50;105795;1259;71983;-84
2024/02/10 01:39:54;;;;;;;21.90;16.20;;;;;;;1.55;100.00;100013.69;105722;1254;61009;-83
2024/02/10 01:42:27;;;;;;;22.40;14.90;;;;;;;1.61;100.00;100016.08;105722;1254;60122;-84
2024/02/10 01:44:58;;;;;;;21.40;13.80;;;;;;;1.66;100.00;100017.80;105710;1258;71799;-87
2024/02/10 01:47:25;;;;;;;21.40;13.90;;;;;;;1.70;100.00;100024.42;105733;1258;61632;-85
2024/02/10 01:49:53;;;;;;;17.60;13.70;;;;;;;1.73;100.00;100028.77;105707;1261;71422;-84
2024/02/10 01:52:20;;;;;;;16.50;13.10;;;;;;;1.73;100.00;100027.76;105941;1251;61325;-83
2024/02/10 01:54:48;;;;;;;17.60;12.90;;;;;;;1.70;100.00;100027.69;105983;1251;60011;-84
2024/02/10 01:57:15;;;;;;;21.80;13.90;;;;;;;1.64;100.00;100032.33;105791;1251;73355;-84
2024/02/10 01:59:44;;;;;;;20.00;13.40;;;;;;;1.61;100.00;100025.22;105849;1256;64206;-84
2024/02/10 02:02:14;;;;;;;24.10;14.60;;;;;;;1.58;100.00;100028.95;105883;1251;72663;-82
2024/02/10 02:04:43;;;;;;;25.30;15.20;;;;;;;1.55;100.00;100024.54;105807;1253;59746;-83
2024/02/10 02:07:10;;;;;;;25.20;16.10;;;;;;;1.57;100.00;100018.45;105848;1257;59994;-83
2024/02/10 02:09:37;;;;;;;26.60;17.30;;;;;;;1.58;100.00;100026.34;105874;1251;71777;-84
2024/02/10 02:12:07;;;;;;;24.70;16.40;;;;;;;1.60;100.00;100020.94;106053;1256;63784;-86
2024/02/10 02:14:36;;;;;;;34.00;20.30;;;;;;;1.60;100.00;100022.82;105896;1251;71454;-84
2024/02/10 02:17:06;;;;;;;33.90;21.60;;;;;;;1.61;100.00;100026.92;105883;1257;59844;-85
2024/02/10 02:19:34;;;;;;;32.20;18.40;;;;;;;1.64;100.00;100030.10;106650;1252;59740;-82
2024/02/10 02:22:02;;;;;;;29.20;17.90;;;;;;;1.67;100.00;100029.52;107169;1252;71482;-86
2024/02/10 02:24:29;;;;;;;31.00;19.50;;;;;;;1.64;100.00;100030.77;106004;1256;62259;-87
2024/02/10 02:26:59;;;;;;;24.90;15.80;;;;;;;1.59;100.00;100027.34;105998;1257;71958;-86
2024/02/10 02:29:28;;;;;;;28.40;16.50;;;;;;;1.57;100.00;100031.36;106096;1254;59743;-86
2024/02/10 02:32:00;;;;;;;24.70;16.00;;;;;;;1.57;100.00;100030.02;106239;1256;59733;-83
2024/02/10 02:34:28;;;;;;;22.80;14.30;;;;;;;1.55;100.00;100028.14;106278;1251;73577;-84
2024/02/10 02:36:57;;;;;;;17.20;12.10;;;;;;;1.56;100.00;100028.31;106205;1251;63967;-85
2024/02/10 02:39:25;;;;;;;16.60;12.00;;;;;;;1.57;100.00;100020.84;106169;1254;71323;-82
2024/02/10 02:41:55;;;;;;;17.00;12.30;;;;;;;1.57;100.00;100020.33;106152;1253;59766;-84
2024/02/10 02:45:03;;;;;;;17.00;12.70;;;;;;;1.61;100.00;100015.74;102450;1296;602642;-87
2024/02/10 02:47:36;;;;;;;15.50;12.40;;;;;;;1.58;100.00;100013.24;105012;1270;61053;-84
2024/02/10 02:50:08;;;;;;;18.10;11.90;;;;;;;1.57;100.00;100016.71;105547;1264;60141;-85
2024/02/10 02:52:37;;;;;;;14.50;10.90;;;;;;;1.54;100.00;100024.39;105229;1266;71231;-85
2024/02/10 02:55:08;;;;;;;16.90;12.00;;;;;;;1.50;100.00;100023.17;105665;1255;62635;-87
2024/02/10 02:57:36;;;;;;;18.80;13.50;;;;;;;1.45;100.00;100025.89;105478;1259;267982;-83
2024/02/10 03:00:03;;;;;;;21.20;14.80;;;;;;;1.43;100.00;100026.29;105800;1255;59662;-85
2024/02/10 03:02:30;;;;;;;16.80;13.20;;;;;;;1.45;100.00;100029.70;105867;1253;60328;-86
2024/02/10 03:04:57;;;;;;;20.00;14.20;;;;;;;1.43;100.00;100030.44;105819;1257;72280;-84
2024/02/10 03:07:27;;;;;;;21.40;12.80;;;;;;;1.40;100.00;100031.23;106108;1257;63689;-82
2024/02/10 03:09:55;;;;;;;13.40;10.40;;;;;;;1.40;100.00;100033.46;106318;1254;71301;-84
2024/02/10 03:12:23;;;;;;;13.10;10.10;;;;;;;1.41;100.00;100036.54;106035;1257;60869;-83
2024/02/10 03:14:50;;;;;;;12.20;9.70;;;;;;;1.40;100.00;100037.92;106059;1257;59676;-83
2024/02/10 03:17:17;;;;;;;13.80;10.10;;;;;;;1.41;100.00;100038.09;106093;1254;73004;-83
2024/02/10 03:19:46;;;;;;;11.90;8.80;;;;;;;1.37;100.00;100035.95;106907;1254;63684;-83
2024/02/10 03:22:13;;;;;;;10.70;9.30;;;;;;;1.37;100.00;100035.81;106729;1254;72569;-84
2024/02/10 03:24:48;;;;;;;13.80;9.10;;;;;;;1.37;100.00;100037.87;106048;1256;61175;-85
2024/02/10 03:27:15;;;;;;;13.70;10.10;;;;;;;1.35;100.00;100029.32;106021;1253;59665;-84
2024/02/10 03:29:45;;;;;;;13.70;10.40;;;;;;;1.36;100.00;100025.50;106075;1254;72969;-84
2024/02/10 03:32:15;;;;;;;13.60;10.20;;;;;;;1.39;100.00;100022.66;105975;1256;62383;-82
2024/02/10 03:34:42;;;;;;;11.70;10.40;;;;;;;1.40;100.00;100015.89;107384;1251;71768;-84
2024/02/10 03:37:10;;;;;;;13.90;10.30;;;;;;;1.45;100.00;100022.80;106933;1251;59708;-84
2024/02/10 03:39:38;;;;;;;13.20;10.30;;;;;;;1.46;100.00;100013.98;105990;1253;60248;-81
2024/02/10 03:42:05;;;;;;;14.10;10.00;;;;;;;1.49;100.00;100014.06;105970;1257;73099;-81
2024/02/10 03:44:32;;;;;;;14.30;11.60;;;;;;;1.52;100.00;100020.67;105970;1251;63922;-82
2024/02/10 03:47:01;;;;;;;12.90;10.30;;;;;;;1.55;100.00;100024.73;106035;1258;72692;-87
2024/02/10 03:49:29;;;;;;;14.90;10.50;;;;;;;1.59;100.00;100021.32;106158;1257;61336;-84
2024/02/10 03:51:56;;;;;;;12.60;10.20;;;;;;;1.58;100.00;100018.94;106910;1251;60016;-84
2024/02/10 03:54:23;;;;;;;12.50;9.70;;;;;;;1.58;100.00;100016.16;108377;1251;72973;-83
2024/02/10 03:56:51;;;;;;;13.30;9.30;;;;;;;1.60;100.00;100015.95;109563;1251;62683;-83
2024/02/10 03:59:18;;;;;;;12.40;9.30;;;;;;;1.63;100.00;100017.90;106880;1255;71383;-85
2024/02/10 04:01:47;;;;;;;11.00;9.20;;;;;;;1.68;100.00;100018.63;106365;1255;59857;-86
2024/02/10 04:04:15;;;;;;;8.80;7.40;;;;;;;1.71;100.00;100021.80;106383;1252;60440;-87
2024/02/10 04:06:43;;;;;;;9.40;8.10;;;;;;;1.70;100.00;100021.64;106296;1256;73755;-85
2024/02/10 04:09:10;;;;;;;9.00;7.70;;;;;;;1.68;100.00;100024.80;106363;1256;63896;-84
2024/02/10 04:11:37;;;;;;;9.50;7.50;;;;;;;1.68;100.00;100023.95;106268;1252;71686;-84
2024/02/10 04:14:04;;;;;;;8.00;7.10;;;;;;;1.70;100.00;100024.58;106531;1256;59725;-84
2024/02/10 04:16:31;;;;;;;9.00;7.50;;;;;;;1.72;100.00;100026.58;106399;1256;59615;-83
2024/02/10 04:19:02;;;;;;;8.40;6.50;;;;;;;1.72;100.00;100021.25;106212;1253;73156;-83
2024/02/10 04:21:28;;;;;;;8.90;7.20;;;;;;;1.70;100.00;100020.98;106375;1255;62449;-84
2024/02/10 04:23:58;;;;;;;8.20;6.60;;;;;;;1.68;100.00;100020.33;106227;1252;72629;-81
2024/02/10 04:26:25;;;;;;;7.70;6.90;;;;;;;1.69;100.00;100023.23;107441;1252;61161;-82
2024/02/10 04:28:53;;;;;;;7.40;6.30;;;;;;;1.67;100.00;100025.36;108977;1252;59548;-82
2024/02/10 04:31:21;;;;;;;7.00;6.30;;;;;;;1.68;100.00;100025.34;109156;1253;72776;-83
2024/02/10 04:33:53;;;;;;;7.40;6.30;;;;;;;1.67;100.00;100029.14;109402;1253;62582;-83
2024/02/10 04:36:22;;;;;;;9.00;6.10;;;;;;;1.62;100.00;100034.13;109064;1253;71108;-83
2024/02/10 04:38:50;;;;;;;7.90;6.50;;;;;;;1.62;100.00;100039.81;108879;1252;60036;-82
2024/02/10 04:41:18;;;;;;;9.40;7.40;;;;;;;1.64;100.00;100038.02;108433;1254;59070;-82
2024/02/10 04:43:46;;;;;;;7.30;6.60;;;;;;;1.68;100.00;100038.09;108036;1253;71886;-79
2024/02/10 04:46:16;;;;;;;8.50;7.10;;;;;;;1.72;100.00;100045.86;108217;1255;62323;-81
2024/02/10 04:48:46;;;;;;;8.90;7.10;;;;;;;1.76;100.00;100048.70;108429;1253;71413;-81
2024/02/10 04:51:14;;;;;;;9.10;7.20;;;;;;;1.76;100.00;100051.95;107440;1253;59694;-83
2024/02/10 04:53:42;;;;;;;11.00;8.20;;;;;;;1.73;100.00;100055.67;106352;1254;59579;-83
2024/02/10 04:56:15;;;;;;;10.30;8.90;;;;;;;1.73;100.00;100052.75;106331;1256;73111;-84
2024/02/10 04:58:43;;;;;;;11.60;9.40;;;;;;;1.75;100.00;100051.28;106278;1255;64415;-83
2024/02/10 05:01:12;;;;;;;10.70;8.60;;;;;;;1.78;100.00;100048.27;106149;1257;72619;-84
2024/02/10 05:03:41;;;;;;;10.00;8.30;;;;;;;1.78;100.00;100044.98;106365;1258;61269;-84
2024/02/10 05:06:09;;;;;;;10.70;8.90;;;;;;;1.72;100.00;100043.66;106191;1253;59641;-84
2024/02/10 05:08:38;;;;;;;10.50;7.70;;;;;;;1.68;100.00;100043.25;106253;1255;73183;-82
2024/02/10 05:11:05;;;;;;;11.90;8.10;;;;;;;1.63;100.00;100043.91;106057;1253;63783;-81
2024/02/10 05:13:32;;;;;;;10.60;8.20;;;;;;;1.59;100.00;100043.19;105971;1256;71718;-83
2024/02/10 05:15:59;;;;;;;14.50;8.80;;;;;;;1.55;100.00;100044.71;106010;1256;59997;-83
2024/02/10 05:18:26;;;;;;;9.70;7.80;;;;;;;1.55;100.00;100043.33;106251;1253;59669;-85
2024/02/10 05:20:57;;;;;;;10.90;8.20;;;;;;;1.53;100.00;100046.66;106140;1256;71811;-84
2024/02/10 05:23:24;;;;;;;11.70;9.50;;;;;;;1.46;100.00;100043.94;106155;1254;63635;-84
2024/02/10 05:25:50;;;;;;;12.40;8.80;;;;;;;1.42;100.00;100043.73;106058;1255;72443;-84
2024/02/10 05:28:23;;;;;;;11.90;9.20;;;;;;;1.43;100.00;100045.08;106136;1256;61188;-81
2024/02/10 05:30:54;;;;;;;15.30;10.50;;;;;;;1.47;100.00;100045.66;106613;1252;60122;-84
2024/02/10 05:33:23;;;;;;;12.10;9.20;;;;;;;1.51;100.00;100047.27;106333;1256;71585;-82
2024/02/10 05:35:50;;;;;;;9.50;8.50;;;;;;;1.56;100.00;100053.30;106029;1255;63665;-83
2024/02/10 05:38:17;;;;;;;13.30;9.80;;;;;;;1.57;100.00;100054.98;105953;1252;71368;-87
2024/02/10 05:40:45;;;;;;;13.90;8.80;;;;;;;1.57;100.00;100059.80;106247;1255;61197;-84
2024/02/10 05:43:14;;;;;;;11.70;9.20;;;;;;;1.58;100.00;100060.45;106024;1254;60237;-81
2024/02/10 05:45:43;;;;;;;10.90;9.80;;;;;;;1.56;100.00;100064.13;106566;1253;73080;-84
2024/02/10 05:48:11;;;;;;;12.10;10.30;;;;;;;1.52;100.00;100067.19;106104;1257;64220;-84
2024/02/10 05:50:38;;;;;;;10.50;9.40;;;;;;;1.54;100.00;100063.33;106160;1253;72746;-84
2024/02/10 05:53:07;;;;;;;12.80;10.10;;;;;;;1.60;100.00;100066.25;106242;1252;61260;-86
2024/02/10 05:55:34;;;;;;;14.10;10.90;;;;;;;1.60;100.00;100063.65;106393;1255;59856;-85
2024/02/10 05:58:06;;;;;;;11.90;10.30;;;;;;;1.62;100.00;100064.30;106202;1255;73036;-84
2024/02/10 06:00:33;;;;;;;12.40;9.60;;;;;;;1.65;100.00;100069.54;106083;1252;62372;-84
2024/02/10 06:03:04;;;;;;;11.40;9.30;;;;;;;1.64;100.00;100071.45;106862;1253;72723;-81
2024/02/10 06:05:31;;;;;;;12.20;10.30;;;;;;;1.66;100.00;100074.33;106447;1255;59917;-85
2024/02/10 06:08:00;;;;;;;14.80;9.60;;;;;;;1.68;100.00;100069.44;105838;1253;60166;-84
2024/02/10 06:10:27;;;;;;;14.60;9.90;;;;;;;1.69;100.00;100068.39;106266;1254;72974;-84
2024/02/10 06:12:55;;;;;;;16.10;10.30;;;;;;;1.65;100.00;100068.15;106522;1253;62558;-85
2024/02/10 06:15:25;;;;;;;11.80;10.10;;;;;;;1.62;100.00;100070.66;106427;1256;71446;-85
2024/02/10 06:17:57;;;;;;;13.00;9.70;;;;;;;1.62;100.00;100072.72;106230;1256;61211;-83
2024/02/10 06:20:24;;;;;;;12.80;9.60;;;;;;;1.63;100.00;100072.18;106049;1252;59817;-83
2024/02/10 06:22:53;;;;;;;15.30;10.20;;;;;;;1.60;100.00;100075.88;106163;1254;73068;-85
2024/02/10 06:25:27;;;;;;;14.70;11.20;;;;;;;1.56;100.00;100081.36;106091;1254;63892;-84
2024/02/10 06:27:56;;;;;;;14.90;11.50;;;;;;;1.50;100.00;100079.99;106713;1252;70317;-82
2024/02/10 06:30:30;;;;;;;15.00;10.70;;;;;;;1.47;100.00;100078.55;106234;1252;60809;-82
2024/02/10 06:32:58;;;;;;;13.20;9.90;;;;;;;1.47;100.00;100078.38;106785;1253;60396;-85
2024/02/10 06:36:31;;;;;;;17.30;11.20;;;;;;;1.51;100.00;100077.55;102987;1294;600359;-84
2024/02/10 06:38:59;;;;;;;16.20;10.90;;;;;;;1.47;100.00;100078.88;106954;1266;60936;-84
2024/02/10 06:41:31;;;;;;;15.10;11.10;;;;;;;1.49;100.00;100084.02;107443;1266;59152;-86
2024/02/10 06:44:01;;;;;;;15.70;10.30;;;;;;;1.54;100.00;100082.98;106823;1266;71312;-85
2024/02/10 06:46:29;;;;;;;15.30;11.50;;;;;;;1.60;100.00;100082.79;106438;1256;63209;-82
2024/02/10 06:48:59;;;;;;;15.20;10.40;;;;;;;1.68;100.00;100088.40;106792;1257;71587;-84
2024/02/10 06:51:28;;;;;;;14.00;10.90;;;;;;;1.71;100.00;100089.65;106557;1257;60058;-82
2024/02/10 06:53:58;;;;;;;13.90;11.30;;;;;;;1.77;100.00;100095.02;107282;1254;61222;-82
2024/02/10 06:56:26;;;;;;;17.30;11.60;;;;;;;1.82;100.00;100093.27;107726;1254;72674;-80
2024/02/10 06:58:53;;;;;;;13.80;11.00;;;;;;;1.88;100.00;100097.92;108258;1254;62404;-81
2024/02/10 07:01:21;;;;;;;14.70;11.10;;;;;;;1.89;100.00;100091.16;108214;1255;71337;-82
2024/02/10 07:03:50;;;;;;;17.30;13.00;;;;;;;1.86;100.00;100088.16;107070;1259;60197;-84
2024/02/10 07:06:26;;;;;;;14.70;11.70;;;;;;;1.81;100.00;100092.11;106481;1255;60025;-84
2024/02/10 07:08:54;;;;;;;15.60;11.60;;;;;;;1.77;100.00;100099.29;106200;1254;71966;-83
2024/02/10 07:11:22;;;;;;;17.00;12.70;;;;;;;1.77;100.00;100106.88;106218;1260;63830;-81
2024/02/10 07:13:49;;;;;;;20.70;15.00;;;;;;;1.80;100.00;100105.75;106380;1256;71432;-83
2024/02/10 07:16:17;;;;;;;21.80;16.30;;;;;;;1.86;100.00;100102.30;107264;1254;62709;-82
2024/02/10 07:18:47;;;;;;;32.30;21.20;;;;;;;1.92;100.00;100110.86;107056;1256;59660;-83
2024/02/10 07:21:15;;;;;;;25.80;16.60;;;;;;;1.98;100.00;100112.23;106409;1258;73588;-81
2024/02/10 07:23:44;;;;;;;33.50;21.70;;;;;;;2.01;100.00;100117.83;106650;1256;64588;-83
2024/02/10 07:26:12;;;;;;;29.60;19.50;;;;;;;2.03;100.00;100122.05;108036;1253;70615;-84
2024/02/10 07:28:40;;;;;;;32.80;23.40;;;;;;;2.05;100.00;100122.36;106851;1256;60357;-84
2024/02/10 07:31:10;;;;;;;33.90;23.80;;;;;;;2.07;100.00;100125.55;106419;1251;60013;-82
2024/02/10 07:33:40;;;;;;;27.70;19.50;;;;;;;2.10;100.00;100127.89;106297;1259;73081;-83
2024/02/10 07:36:08;;;;;;;29.40;19.80;;;;;;;2.12;100.00;100125.59;106138;1251;63025;-82
2024/02/10 07:38:38;;;;;;;28.50;18.50;;;;;;;2.14;100.00;100129.14;106140;1256;72725;-83
2024/02/10 07:41:06;;;;;;;28.40;19.40;;;;;;;2.15;100.00;100125.11;107298;1251;60370;-86
2024/02/10 07:43:35;;;;;;;33.40;22.20;;;;;;;2.17;100.00;100120.23;106824;1251;60040;-82
2024/02/10 07:46:05;;;;;;;42.60;23.50;;;;;;;2.17;100.00;100122.14;106470;1251;71998;-83
2024/02/10 07:48:33;;;;;;;38.40;23.70;;;;;;;2.17;100.00;100123.48;106545;1258;63729;-85
2024/02/10 07:51:01;;;;;;;44.30;25.40;;;;;;;2.19;100.00;100128.98;106294;1258;72474;-86
2024/02/10 07:53:30;;;;;;;34.20;23.40;;;;;;;2.22;100.00;100135.40;106578;1256;62904;-83
2024/02/10 07:55:58;;;;;;;31.90;22.00;;;;;;;2.28;100.00;100130.05;106305;1251;59757;-83
2024/02/10 07:58:29;;;;;;;31.80;21.70;;;;;;;2.32;100.00;100127.33;106647;1251;73135;-83
2024/02/10 08:01:01;;;;;;;38.90;23.40;;;;;;;2.33;100.00;100126.59;106796;1257;63650;-84
2024/02/10 08:03:30;;;;;;;29.70;21.90;;;;;;;2.33;100.00;100126.10;106317;1253;72986;-83
2024/02/10 08:05:58;;;;;;;36.20;22.50;;;;;;;2.38;100.00;100133.68;106438;1254;59673;-84
2024/02/10 08:08:26;;;;;;;36.20;23.90;;;;;;;2.45;100.00;100133.42;106278;1251;59996;-84
2024/02/10 08:10:54;;;;;;;36.40;22.40;;;;;;;2.53;100.00;100141.64;106444;1255;73067;-84
2024/02/10 08:13:26;;;;;;;32.70;20.20;;;;;;;2.59;100.00;100141.58;106199;1251;64552;-80
2024/02/10 08:15:54;;;;;;;32.00;20.60;;;;;;;2.64;100.00;100147.61;106062;1253;72703;-83
2024/02/10 08:18:25;;;;;;;39.10;26.50;;;;;;;2.67;100.00;100143.90;106202;1257;61011;-81
2024/02/10 08:20:53;;;;;;;34.40;21.80;;;;;;;2.67;100.00;100142.33;105991;1258;59599;-84
2024/02/10 08:23:23;;;;;;;38.70;23.10;;;;;;;2.68;100.00;100141.08;106020;1259;71504;-84
2024/02/10 08:25:54;;;;;;;39.80;24.10;;;;;;;2.71;100.00;100141.34;106079;1256;64672;-84
2024/02/10 08:28:22;;;;;;;40.90;25.70;;;;;;;2.72;100.00;100139.04;106181;1266;72516;-84
2024/02/10 08:30:53;;;;;;;40.50;26.60;;;;;;;2.74;100.00;100134.14;107057;1252;60939;-82
2024/02/10 08:33:21;;;;;;;47.30;28.30;;;;;;;2.76;100.00;100132.35;106329;1254;60505;-84
2024/02/10 08:35:50;;;;;;;46.70;27.30;;;;;;;2.81;100.00;100136.83;106089;1256;73296;-83
2024/02/10 08:38:19;;;;;;;49.80;29.20;;;;;;;2.84;100.00;100142.58;106109;1256;64159;-82
2024/02/10 08:40:47;;;;;;;50.90;30.60;;;;;;;2.86;100.00;100143.04;106150;1258;71216;-83
2024/02/10 08:43:18;;;;;;;49.20;29.30;;;;;;;2.85;100.00;100139.95;106902;1256;62716;-84
2024/02/10 08:45:46;;;;;;;50.40;29.50;;;;;;;2.83;100.00;100135.39;109665;1252;60731;-85
2024/02/10 08:48:14;;;;;;;50.50;30.60;;;;;;;2.80;100.00;100129.98;109673;1251;73181;-83
2024/02/10 08:50:46;;;;;;;45.80;28.30;;;;;;;2.80;100.00;100130.84;109616;1254;64637;-81
2024/02/10 08:53:16;;;;;;;50.00;28.40;;;;;;;2.79;100.00;100132.79;109648;1251;72646;-82
2024/02/10 08:55:44;;;;;;;44.30;25.70;;;;;;;2.77;100.00;100129.36;109641;1253;61286;-83
2024/02/10 08:58:15;;;;;;;51.90;27.70;;;;;;;2.79;100.00;100120.50;109658;1251;60350;-83
2024/02/10 09:00:46;;;;;;;47.90;29.20;;;;;;;2.83;100.00;100116.73;109673;1251;71234;-83
2024/02/10 09:03:15;;;;;;;49.90;28.70;;;;;;;2.88;100.00;100109.63;109692;1251;62266;-81
2024/02/10 09:05:43;;;;;;;40.80;25.30;;;;;;;2.96;100.00;100106.94;109673;1251;71043;-82
2024/02/10 09:08:10;;;;;;;39.20;24.00;;;;;;;2.99;100.00;100105.11;109564;1252;61841;-83
2024/02/10 09:10:38;;;;;;;40.60;24.80;;;;;;;2.98;100.00;100111.52;109637;1251;59993;-81
2024/02/10 09:13:06;;;;;;;45.20;28.00;;;;;;;3.00;100.00;100108.67;109679;1251;73445;-83
2024/02/10 09:15:34;;;;;;;41.40;24.60;;;;;;;3.01;100.00;100113.65;109717;1251;63708;-82
2024/02/10 09:18:02;;;;;;;31.30;19.40;;;;;;;3.02;100.00;100121.73;109682;1251;71823;-84
2024/02/10 09:20:32;;;;;;;37.00;21.70;;;;;;;3.00;100.00;100121.65;109573;1251;60481;-83
2024/02/10 09:23:02;;;;;;;31.00;18.50;;;;;;;2.98;100.00;100118.77;109780;1251;58567;-81
2024/02/10 09:25:36;;;;;;;30.60;19.50;;;;;;;2.97;100.00;100123.98;109741;1251;75443;-81
2024/02/10 09:28:04;;;;;;;28.50;19.90;;;;;;;2.98;100.00;100122.95;109712;1251;62287;-82
2024/02/10 09:30:35;;;;;;;36.40;20.80;;;;;;;2.96;100.00;100122.29;109656;1251;72482;-82
2024/02/10 09:33:06;;;;;;;36.10;21.60;;;;;;;3.00;100.00;100123.72;109564;1251;62281;-84
2024/02/10 09:35:39;;;;;;;38.10;24.40;;;;;;;3.07;100.00;100123.97;109676;1251;59992;-85
2024/02/10 09:38:12;;;;;;;39.10;23.30;;;;;;;3.09;100.00;100126.13;109672;1251;73125;-86
2024/02/10 09:40:42;;;;;;;40.60;23.40;;;;;;;3.09;100.00;100129.23;109459;1251;65029;-82
2024/02/10 09:43:10;;;;;;;35.40;22.30;;;;;;;3.09;100.00;100129.92;109655;1251;72603;-84
2024/02/10 09:45:41;;;;;;;33.30;21.30;;;;;;;3.08;100.00;100133.06;109612;1257;62793;-83
2024/02/10 09:48:10;;;;;;;33.10;20.40;;;;;;;3.07;100.00;100127.60;109703;1251;58933;-84
2024/02/10 09:50:37;;;;;;;41.10;24.20;;;;;;;3.07;100.00;100127.09;109555;1251;72169;-83
2024/02/10 09:53:05;;;;;;;39.00;22.60;;;;;;;3.05;100.00;100128.87;109599;1251;62529;-83
2024/02/10 09:55:33;;;;;;;44.50;23.90;;;;;;;3.06;100.00;100128.67;109613;1251;71025;-83
2024/02/10 09:58:04;;;;;;;46.00;25.20;;;;;;;3.04;100.00;100129.08;109572;1251;59975;-83
2024/02/10 10:00:36;;;;;;;40.40;21.90;;;;;;;3.01;100.00;100136.97;109684;1251;60087;-83
2024/02/10 10:03:04;;;;;;;41.10;24.10;;;;;;;2.99;100.00;100137.56;109485;1251;73094;-83
2024/02/10 10:05:42;;;;;;;44.90;26.90;;;;;;;3.02;100.00;100136.44;109557;1251;63865;-83
2024/02/10 10:08:11;;;;;;;39.00;25.00;;;;;;;3.05;100.00;100131.11;109692;1251;72506;-82
2024/02/10 10:10:39;;;;;;;44.10;25.10;;;;;;;3.08;100.00;100129.97;109628;1251;62853;-85
2024/02/10 10:13:10;;;;;;;37.60;22.50;;;;;;;3.08;100.00;100121.67;109643;1251;59911;-85
2024/02/10 10:15:39;;;;;;;45.90;26.30;;;;;;;3.12;100.00;100117.38;109509;1251;71971;-87
2024/02/10 10:18:16;;;;;;;44.70;27.10;;;;;;;3.15;100.00;100115.20;109682;1251;63497;-83
2024/02/10 10:20:53;;;;;;;47.80;28.50;;;;;;;3.15;100.00;100119.02;109692;1251;71824;-84
2024/02/10 10:23:21;;;;;;;46.40;25.70;;;;;;;3.12;100.00;100120.52;109550;1251;63331;-83
2024/02/10 10:25:49;;;;;;;53.00;25.30;;;;;;;3.10;100.00;100125.42;109688;1256;59258;-84
2024/02/10 10:28:22;;;;;;;53.40;27.20;;;;;;;3.09;100.00;100115.95;109548;1257;73030;-83
2024/02/10 10:30:49;;;;;;;44.00;27.90;;;;;;;3.10;100.00;100110.22;109668;1251;61762;-83
2024/02/10 10:33:18;;;;;;;42.40;24.50;;;;;;;3.12;100.00;100110.48;109544;1254;72805;-82
2024/02/10 10:35:48;;;;;;;46.80;24.20;;;;;;;3.13;100.00;100116.67;109626;1251;62397;-83
2024/02/10 10:38:21;;;;;;;49.70;24.90;;;;;;;3.13;100.00;100124.79;109577;1251;58974;-82
2024/02/10 10:40:53;;;;;;;45.50;26.00;;;;;;;3.14;100.00;100125.09;109552;1251;73137;-84
2024/02/10 10:43:21;;;;;;;45.40;25.00;;;;;;;3.13;100.00;100125.66;109658;1251;63105;-83
2024/02/10 10:45:50;;;;;;;44.00;24.40;;;;;;;3.10;100.00;100124.02;109634;1251;72769;-83
2024/02/10 10:48:18;;;;;;;47.00;24.10;;;;;;;3.11;100.00;100129.70;109582;1251;60928;-84
2024/02/10 10:50:46;;;;;;;52.20;26.20;;;;;;;3.11;100.00;100132.63;109595;1251;60165;-84
2024/02/10 10:53:14;;;;;;;39.30;21.80;;;;;;;3.08;100.00;100130.66;109581;1251;73846;-82
2024/02/10 10:55:48;;;;;;;48.20;26.80;;;;;;;3.03;100.00;100129.11;109526;1251;62501;-84
2024/02/10 10:58:18;;;;;;;55.80;27.90;;;;;;;3.01;100.00;100129.90;109714;1251;72995;-84
2024/02/10 11:00:46;;;;;;;51.20;27.40;;;;;;;2.99;100.00;100128.75;109588;1251;59661;-84
2024/02/10 11:03:15;;;;;;;49.10;26.80;;;;;;;3.01;100.00;100127.15;109641;1251;60078;-84
2024/02/10 11:05:49;;;;;;;56.10;28.80;;;;;;;3.02;100.00;100122.27;109754;1251;73597;-85
2024/02/10 11:08:26;;;;;;;60.80;32.40;;;;;;;3.04;100.00;100124.45;109508;1251;62363;-84
2024/02/10 11:10:58;;;;;;;47.80;26.90;;;;;;;3.09;100.00;100122.67;109520;1251;74001;-86
2024/02/10 11:13:28;;;;;;;48.30;26.70;;;;;;;3.10;100.00;100121.11;109616;1251;59465;-85
2024/02/10 11:16:03;;;;;;;58.00;26.80;;;;;;;3.09;100.00;100120.10;109549;1251;61144;-85
2024/02/10 11:18:33;;;;;;;43.40;24.00;;;;;;;3.09;100.00;100124.25;109633;1251;73841;-86
2024/02/10 11:21:09;;;;;;;48.20;29.50;;;;;;;3.07;100.00;100119.31;109392;1251;62669;-83
2024/02/10 11:23:37;;;;;;;53.60;27.50;;;;;;;3.07;100.00;100117.91;109517;1251;72257;-84
2024/02/10 11:26:07;;;;;;;51.00;25.80;;;;;;;3.07;100.00;100116.73;109448;1251;60175;-85
2024/02/10 11:28:37;;;;;;;45.90;25.10;;;;;;;3.07;100.00;100118.80;109565;1251;59139;-84